Portada
METAR-TAF:

METAR-TAF

Aeropuertos :

Aeropuerto de Valencia

Valencia, España

latitud: 39-30N, longitud: 000-28W, altitud: 69 m

Observación

El informe se hizo hace 39 minutos, a las 09:30 UTC
Viento 5 kt del sur-suroeste, variando entre sureste y oeste
Temperatura 22°C
Humedad 33%
Presión 1016 hPa
Visibilidad 10 km o más
sin nubes por debajo de 1500 m y sin presencia de cumulonimbus.

METAR: LEVC 130930Z 21005KT 130V280 CAVOK 22/05 Q1016 NOSIG

Hora: 12:09 (10:09 UTC)

Pronóstico

El informe se hizo hace 5 horas y 9 minutos, a las 05:00 UTC
Pronóstico válido del 13 a las 06 UTC al 14 a las 06 UTC
Viento 4 kt con dirección variable
Visibilidad 10 km o más
sin nubes por debajo de 1500 m y sin presencia de cumulonimbus.
Evolucionando progresivamente
del 13 a las 09 UTC al 13 a las 11 UTC
Viento 13 kt del oeste-suroeste

TAF: LEVC 130500Z 1306/1406 VRB04KT CAVOK TX28/1313Z TN12/1306Z BECMG 1309/1311 25013KT

Observaciones y pronósticos meteorológicos de más de 4000 aeropuertos (mensajes METAR y TAF).

Los puntos amarillos y rojos representan las estaciones disponibles.

Ponga el ratón en el punto deseado para ver el nombre de la estación.

Haga clic para ver las observaciones y los pronósticos meteorológicos.

Para cambiar el mapa : haga clic en los botones verdes con una cruz de color negro para hacer un zoom, en el botón verde con un guión para alejar o en las flechas verdes para mapas adyacentes.


METAR-TAF: